sensor_id;sensor_type;location;lat;lon;timestamp;P1;durP1;ratioP1;P2;durP2;ratioP2
68108;SDS011;54893;49.864;19.084;2022-12-08T00:03:42;9.33;;;4.20;;
68108;SDS011;54893;49.864;19.084;2022-12-08T00:08:42;9.73;;;4.00;;
68108;SDS011;54893;49.864;19.084;2022-12-08T00:14:01;11.23;;;3.60;;
68108;SDS011;54893;49.864;19.084;2022-12-08T00:19:01;10.53;;;4.03;;
68108;SDS011;54893;49.864;19.084;2022-12-08T00:24:02;9.77;;;4.00;;
68108;SDS011;54893;49.864;19.084;2022-12-08T00:29:02;9.77;;;4.43;;
68108;SDS011;54893;49.864;19.084;2022-12-08T00:34:03;9.45;;;4.45;;
68108;SDS011;54893;49.864;19.084;2022-12-08T00:39:03;11.07;;;4.23;;
68108;SDS011;54893;49.864;19.084;2022-12-08T00:44:05;11.07;;;4.17;;
68108;SDS011;54893;49.864;19.084;2022-12-08T00:49:06;11.90;;;4.40;;
68108;SDS011;54893;49.864;19.084;2022-12-08T00:54:07;10.38;;;3.60;;
68108;SDS011;54893;49.864;19.084;2022-12-08T00:59:07;8.63;;;3.30;;
68108;SDS011;54893;49.864;19.084;2022-12-08T01:04:09;8.37;;;4.00;;
68108;SDS011;54893;49.864;19.084;2022-12-08T01:09:14;8.27;;;3.40;;
68108;SDS011;54893;49.864;19.084;2022-12-08T01:14:16;9.95;;;3.97;;
68108;SDS011;54893;49.864;19.084;2022-12-08T01:19:16;9.73;;;3.50;;
68108;SDS011;54893;49.864;19.084;2022-12-08T01:24:17;9.83;;;4.33;;
68108;SDS011;54893;49.864;19.084;2022-12-08T01:29:19;9.38;;;4.35;;
68108;SDS011;54893;49.864;19.084;2022-12-08T01:34:19;9.20;;;3.63;;
68108;SDS011;54893;49.864;19.084;2022-12-08T01:39:20;7.83;;;3.70;;
68108;SDS011;54893;49.864;19.084;2022-12-08T01:49:30;13.10;;;4.40;;
68108;SDS011;54893;49.864;19.084;2022-12-08T01:54:35;12.05;;;3.53;;
68108;SDS011;54893;49.864;19.084;2022-12-08T01:59:45;11.60;;;3.97;;
68108;SDS011;54893;49.864;19.084;2022-12-08T02:04:52;9.40;;;4.00;;
68108;SDS011;54893;49.864;19.084;2022-12-08T02:09:52;10.97;;;4.30;;
68108;SDS011;54893;49.864;19.084;2022-12-08T02:14:53;11.02;;;4.30;;
68108;SDS011;54893;49.864;19.084;2022-12-08T02:41:22;10.93;;;4.23;;
68108;SDS011;54893;49.864;19.084;2022-12-08T02:46:25;8.88;;;4.30;;
68108;SDS011;54893;49.864;19.084;2022-12-08T02:51:28;9.80;;;4.33;;
68108;SDS011;54893;49.864;19.084;2022-12-08T02:56:33;8.90;;;3.77;;
68108;SDS011;54893;49.864;19.084;2022-12-08T03:07:39;7.13;;;2.65;;
68108;SDS011;54893;49.864;19.084;2022-12-08T03:12:51;9.63;;;3.88;;
68108;SDS011;54893;49.864;19.084;2022-12-08T03:17:57;13.93;;;5.22;;
68108;SDS011;54893;49.864;19.084;2022-12-08T03:23:00;17.97;;;5.93;;
68108;SDS011;54893;49.864;19.084;2022-12-08T03:28:04;12.32;;;4.95;;
68108;SDS011;54893;49.864;19.084;2022-12-08T03:33:15;11.40;;;5.00;;
68108;SDS011;54893;49.864;19.084;2022-12-08T03:38:21;15.43;;;5.88;;
68108;SDS011;54893;49.864;19.084;2022-12-08T03:43:22;14.70;;;6.47;;
68108;SDS011;54893;49.864;19.084;2022-12-08T03:48:22;15.40;;;5.77;;
68108;SDS011;54893;49.864;19.084;2022-12-08T03:53:22;12.50;;;4.90;;
68108;SDS011;54893;49.864;19.084;2022-12-08T03:58:22;11.50;;;5.40;;
68108;SDS011;54893;49.864;19.084;2022-12-08T04:03:23;11.43;;;5.10;;
68108;SDS011;54893;49.864;19.084;2022-12-08T04:08:23;13.77;;;5.50;;
68108;SDS011;54893;49.864;19.084;2022-12-08T04:13:23;13.07;;;5.40;;
68108;SDS011;54893;49.864;19.084;2022-12-08T04:18:24;14.23;;;5.20;;
68108;SDS011;54893;49.864;19.084;2022-12-08T04:23:24;13.17;;;5.73;;
68108;SDS011;54893;49.864;19.084;2022-12-08T04:28:25;10.63;;;4.90;;
68108;SDS011;54893;49.864;19.084;2022-12-08T04:33:25;11.50;;;4.27;;
68108;SDS011;54893;49.864;19.084;2022-12-08T04:38:25;13.73;;;5.57;;
68108;SDS011;54893;49.864;19.084;2022-12-08T04:43:27;16.63;;;5.65;;
68108;SDS011;54893;49.864;19.084;2022-12-08T04:48:28;15.93;;;6.20;;
68108;SDS011;54893;49.864;19.084;2022-12-08T04:53:28;14.90;;;6.13;;
68108;SDS011;54893;49.864;19.084;2022-12-08T04:58:28;12.80;;;6.27;;
68108;SDS011;54893;49.864;19.084;2022-12-08T05:03:29;15.50;;;6.17;;
68108;SDS011;54893;49.864;19.084;2022-12-08T05:08:29;13.23;;;5.73;;
68108;SDS011;54893;49.864;19.084;2022-12-08T05:13:30;19.92;;;7.25;;
68108;SDS011;54893;49.864;19.084;2022-12-08T05:18:30;22.07;;;7.33;;
68108;SDS011;54893;49.864;19.084;2022-12-08T05:23:31;18.07;;;6.70;;
68108;SDS011;54893;49.864;19.084;2022-12-08T05:28:31;16.97;;;6.70;;
68108;SDS011;54893;49.864;19.084;2022-12-08T05:33:32;19.10;;;8.33;;
68108;SDS011;54893;49.864;19.084;2022-12-08T05:38:32;22.67;;;8.80;;
68108;SDS011;54893;49.864;19.084;2022-12-08T05:43:32;22.83;;;10.63;;
68108;SDS011;54893;49.864;19.084;2022-12-08T05:48:33;26.27;;;10.13;;
68108;SDS011;54893;49.864;19.084;2022-12-08T05:53:34;18.20;;;8.25;;
68108;SDS011;54893;49.864;19.084;2022-12-08T05:58:34;23.80;;;8.30;;
68108;SDS011;54893;49.864;19.084;2022-12-08T06:03:34;15.02;;;5.85;;
68108;SDS011;54893;49.864;19.084;2022-12-08T06:08:35;18.47;;;8.10;;
68108;SDS011;54893;49.864;19.084;2022-12-08T06:13:35;20.47;;;7.67;;
68108;SDS011;54893;49.864;19.084;2022-12-08T06:18:35;16.93;;;8.17;;
68108;SDS011;54893;49.864;19.084;2022-12-08T06:23:36;24.77;;;8.53;;
68108;SDS011;54893;49.864;19.084;2022-12-08T06:28:37;20.83;;;9.33;;
68108;SDS011;54893;49.864;19.084;2022-12-08T06:33:38;21.23;;;9.40;;
68108;SDS011;54893;49.864;19.084;2022-12-08T06:38:38;22.47;;;9.20;;
68108;SDS011;54893;49.864;19.084;2022-12-08T06:43:39;22.40;;;9.77;;
68108;SDS011;54893;49.864;19.084;2022-12-08T06:48:40;20.05;;;7.38;;
68108;SDS011;54893;49.864;19.084;2022-12-08T06:53:41;17.83;;;6.50;;
68108;SDS011;54893;49.864;19.084;2022-12-08T06:58:42;16.60;;;6.80;;
68108;SDS011;54893;49.864;19.084;2022-12-08T07:03:42;15.37;;;6.30;;
68108;SDS011;54893;49.864;19.084;2022-12-08T07:08:43;14.23;;;6.90;;
68108;SDS011;54893;49.864;19.084;2022-12-08T07:13:43;15.67;;;6.50;;
68108;SDS011;54893;49.864;19.084;2022-12-08T07:18:43;21.90;;;9.03;;
68108;SDS011;54893;49.864;19.084;2022-12-08T07:23:44;19.73;;;8.90;;
68108;SDS011;54893;49.864;19.084;2022-12-08T07:28:45;19.25;;;8.02;;
68108;SDS011;54893;49.864;19.084;2022-12-08T07:33:46;20.63;;;9.33;;
68108;SDS011;54893;49.864;19.084;2022-12-08T07:38:47;17.93;;;7.57;;
68108;SDS011;54893;49.864;19.084;2022-12-08T07:43:48;21.02;;;8.90;;
68108;SDS011;54893;49.864;19.084;2022-12-08T07:48:49;20.90;;;9.20;;
68108;SDS011;54893;49.864;19.084;2022-12-08T07:53:50;22.20;;;9.32;;
68108;SDS011;54893;49.864;19.084;2022-12-08T07:58:51;18.50;;;7.13;;
68108;SDS011;54893;49.864;19.084;2022-12-08T08:03:52;19.60;;;8.20;;
68108;SDS011;54893;49.864;19.084;2022-12-08T08:08:54;15.23;;;7.28;;
68108;SDS011;54893;49.864;19.084;2022-12-08T08:13:54;15.30;;;6.18;;
68108;SDS011;54893;49.864;19.084;2022-12-08T08:18:55;22.17;;;8.27;;
68108;SDS011;54893;49.864;19.084;2022-12-08T08:23:56;18.90;;;8.10;;
68108;SDS011;54893;49.864;19.084;2022-12-08T08:28:56;17.20;;;7.18;;
68108;SDS011;54893;49.864;19.084;2022-12-08T08:33:56;17.47;;;6.63;;
68108;SDS011;54893;49.864;19.084;2022-12-08T08:38:57;18.27;;;6.50;;
68108;SDS011;54893;49.864;19.084;2022-12-08T08:43:57;16.13;;;5.60;;
68108;SDS011;54893;49.864;19.084;2022-12-08T08:48:57;14.23;;;4.90;;
68108;SDS011;54893;49.864;19.084;2022-12-08T08:53:58;15.07;;;6.50;;
68108;SDS011;54893;49.864;19.084;2022-12-08T08:58:58;13.80;;;5.87;;
68108;SDS011;54893;49.864;19.084;2022-12-08T09:03:58;12.53;;;4.87;;
68108;SDS011;54893;49.864;19.084;2022-12-08T09:09:00;11.50;;;5.20;;
68108;SDS011;54893;49.864;19.084;2022-12-08T09:14:00;10.23;;;4.50;;
68108;SDS011;54893;49.864;19.084;2022-12-08T09:19:00;11.13;;;4.90;;
68108;SDS011;54893;49.864;19.084;2022-12-08T09:24:01;10.60;;;4.25;;
68108;SDS011;54893;49.864;19.084;2022-12-08T09:29:02;9.63;;;4.00;;
68108;SDS011;54893;49.864;19.084;2022-12-08T09:34:03;11.30;;;4.50;;
68108;SDS011;54893;49.864;19.084;2022-12-08T09:39:04;10.95;;;4.38;;
68108;SDS011;54893;49.864;19.084;2022-12-08T09:49:35;9.45;;;4.30;;
68108;SDS011;54893;49.864;19.084;2022-12-08T09:54:41;10.15;;;4.25;;
68108;SDS011;54893;49.864;19.084;2022-12-08T09:59:42;11.60;;;3.90;;
68108;SDS011;54893;49.864;19.084;2022-12-08T10:04:46;8.97;;;3.27;;
68108;SDS011;54893;49.864;19.084;2022-12-08T10:09:49;11.27;;;4.80;;
68108;SDS011;54893;49.864;19.084;2022-12-08T10:15:17;9.98;;;4.57;;
68108;SDS011;54893;49.864;19.084;2022-12-08T10:20:25;11.13;;;4.67;;
68108;SDS011;54893;49.864;19.084;2022-12-08T10:25:30;10.82;;;4.90;;
68108;SDS011;54893;49.864;19.084;2022-12-08T10:30:39;12.38;;;5.75;;
68108;SDS011;54893;49.864;19.084;2022-12-08T10:35:45;12.57;;;6.03;;
68108;SDS011;54893;49.864;19.084;2022-12-08T10:40:50;13.20;;;6.38;;
68108;SDS011;54893;49.864;19.084;2022-12-08T10:45:52;13.67;;;6.00;;
68108;SDS011;54893;49.864;19.084;2022-12-08T11:01:10;18.20;;;8.07;;
68108;SDS011;54893;49.864;19.084;2022-12-08T11:06:38;16.40;;;7.40;;
68108;SDS011;54893;49.864;19.084;2022-12-08T11:16:50;18.53;;;8.00;;
68108;SDS011;54893;49.864;19.084;2022-12-08T11:21:53;16.58;;;8.23;;
68108;SDS011;54893;49.864;19.084;2022-12-08T11:26:57;14.23;;;6.70;;
68108;SDS011;54893;49.864;19.084;2022-12-08T11:32:03;12.60;;;6.03;;
68108;SDS011;54893;49.864;19.084;2022-12-08T11:37:18;13.93;;;5.80;;
68108;SDS011;54893;49.864;19.084;2022-12-08T11:42:25;15.52;;;6.30;;
68108;SDS011;54893;49.864;19.084;2022-12-08T11:47:56;14.20;;;6.53;;
68108;SDS011;54893;49.864;19.084;2022-12-08T11:53:00;14.45;;;6.15;;
68108;SDS011;54893;49.864;19.084;2022-12-08T11:58:08;13.52;;;7.22;;
68108;SDS011;54893;49.864;19.084;2022-12-08T12:03:35;13.23;;;6.60;;
68108;SDS011;54893;49.864;19.084;2022-12-08T12:19:04;20.90;;;8.00;;
68108;SDS011;54893;49.864;19.084;2022-12-08T12:24:18;14.07;;;7.00;;
68108;SDS011;54893;49.864;19.084;2022-12-08T12:29:23;13.40;;;6.37;;
68108;SDS011;54893;49.864;19.084;2022-12-08T12:34:28;14.75;;;6.47;;
68108;SDS011;54893;49.864;19.084;2022-12-08T12:45:09;14.15;;;5.70;;
68108;SDS011;54893;49.864;19.084;2022-12-08T12:50:11;13.35;;;5.38;;
68108;SDS011;54893;49.864;19.084;2022-12-08T13:00:17;15.85;;;6.75;;
68108;SDS011;54893;49.864;19.084;2022-12-08T13:05:24;13.18;;;6.63;;
68108;SDS011;54893;49.864;19.084;2022-12-08T13:15:32;11.57;;;5.38;;
68108;SDS011;54893;49.864;19.084;2022-12-08T13:20:41;19.75;;;7.47;;
68108;SDS011;54893;49.864;19.084;2022-12-08T13:25:47;16.53;;;7.57;;
68108;SDS011;54893;49.864;19.084;2022-12-08T13:30:51;17.13;;;6.78;;
68108;SDS011;54893;49.864;19.084;2022-12-08T13:35:55;16.90;;;6.78;;
68108;SDS011;54893;49.864;19.084;2022-12-08T13:41:18;14.73;;;6.40;;
68108;SDS011;54893;49.864;19.084;2022-12-08T13:46:27;18.70;;;7.55;;
68108;SDS011;54893;49.864;19.084;2022-12-08T13:51:42;23.20;;;9.67;;
68108;SDS011;54893;49.864;19.084;2022-12-08T13:56:45;23.40;;;9.15;;
68108;SDS011;54893;49.864;19.084;2022-12-08T14:01:47;18.38;;;7.63;;
68108;SDS011;54893;49.864;19.084;2022-12-08T14:06:57;21.48;;;7.72;;
68108;SDS011;54893;49.864;19.084;2022-12-08T14:12:00;24.98;;;10.02;;
68108;SDS011;54893;49.864;19.084;2022-12-08T14:17:14;21.40;;;8.50;;
68108;SDS011;54893;49.864;19.084;2022-12-08T14:22:16;22.63;;;8.95;;
68108;SDS011;54893;49.864;19.084;2022-12-08T14:27:18;24.17;;;8.50;;
68108;SDS011;54893;49.864;19.084;2022-12-08T14:32:23;17.77;;;7.82;;
68108;SDS011;54893;49.864;19.084;2022-12-08T14:37:30;23.50;;;8.80;;
68108;SDS011;54893;49.864;19.084;2022-12-08T14:42:42;29.98;;;10.27;;
68108;SDS011;54893;49.864;19.084;2022-12-08T14:47:43;19.17;;;7.47;;
68108;SDS011;54893;49.864;19.084;2022-12-08T14:52:44;18.75;;;7.30;;
68108;SDS011;54893;49.864;19.084;2022-12-08T14:57:45;18.20;;;6.73;;
68108;SDS011;54893;49.864;19.084;2022-12-08T15:02:47;26.20;;;10.07;;
68108;SDS011;54893;49.864;19.084;2022-12-08T15:07:52;61.13;;;17.43;;
68108;SDS011;54893;49.864;19.084;2022-12-08T15:13:41;340.03;;;96.90;;
68108;SDS011;54893;49.864;19.084;2022-12-08T15:23:29;221.30;;;57.90;;
68108;SDS011;54893;49.864;19.084;2022-12-08T15:28:31;91.67;;;26.77;;
68108;SDS011;54893;49.864;19.084;2022-12-08T15:33:32;69.17;;;19.67;;
68108;SDS011;54893;49.864;19.084;2022-12-08T15:38:32;66.70;;;19.17;;
68108;SDS011;54893;49.864;19.084;2022-12-08T15:43:33;43.03;;;14.20;;
68108;SDS011;54893;49.864;19.084;2022-12-08T15:48:35;38.37;;;12.57;;
68108;SDS011;54893;49.864;19.084;2022-12-08T15:53:36;37.63;;;12.63;;
68108;SDS011;54893;49.864;19.084;2022-12-08T15:58:36;33.43;;;11.23;;
68108;SDS011;54893;49.864;19.084;2022-12-08T16:03:37;79.63;;;25.30;;
68108;SDS011;54893;49.864;19.084;2022-12-08T16:08:38;151.40;;;49.17;;
68108;SDS011;54893;49.864;19.084;2022-12-08T16:13:38;179.50;;;54.33;;
68108;SDS011;54893;49.864;19.084;2022-12-08T16:18:51;218.95;;;64.38;;
68108;SDS011;54893;49.864;19.084;2022-12-08T16:23:52;307.43;;;90.97;;
68108;SDS011;54893;49.864;19.084;2022-12-08T16:28:52;313.90;;;89.73;;
68108;SDS011;54893;49.864;19.084;2022-12-08T16:33:52;235.20;;;73.23;;
68108;SDS011;54893;49.864;19.084;2022-12-08T16:38:52;302.03;;;78.93;;
68108;SDS011;54893;49.864;19.084;2022-12-08T16:43:53;198.50;;;66.10;;
68108;SDS011;54893;49.864;19.084;2022-12-08T16:48:53;171.67;;;64.40;;
68108;SDS011;54893;49.864;19.084;2022-12-08T16:53:55;190.93;;;67.27;;
68108;SDS011;54893;49.864;19.084;2022-12-08T16:58:57;231.43;;;88.03;;
68108;SDS011;54893;49.864;19.084;2022-12-08T17:03:57;397.43;;;126.87;;
68108;SDS011;54893;49.864;19.084;2022-12-08T17:08:58;220.63;;;78.50;;
68108;SDS011;54893;49.864;19.084;2022-12-08T17:13:58;231.83;;;62.87;;
68108;SDS011;54893;49.864;19.084;2022-12-08T17:18:59;333.27;;;97.33;;
68108;SDS011;54893;49.864;19.084;2022-12-08T17:23:59;350.63;;;103.20;;
68108;SDS011;54893;49.864;19.084;2022-12-08T17:29:00;269.47;;;80.27;;
68108;SDS011;54893;49.864;19.084;2022-12-08T17:34:03;162.35;;;58.55;;
68108;SDS011;54893;49.864;19.084;2022-12-08T17:39:07;78.80;;;27.17;;
68108;SDS011;54893;49.864;19.084;2022-12-08T17:44:09;62.95;;;19.20;;
68108;SDS011;54893;49.864;19.084;2022-12-08T17:49:14;82.40;;;26.27;;
68108;SDS011;54893;49.864;19.084;2022-12-08T17:54:17;66.38;;;21.83;;
68108;SDS011;54893;49.864;19.084;2022-12-08T17:59:18;44.90;;;16.13;;
68108;SDS011;54893;49.864;19.084;2022-12-08T18:04:18;55.13;;;18.43;;
68108;SDS011;54893;49.864;19.084;2022-12-08T18:09:19;46.97;;;16.10;;
68108;SDS011;54893;49.864;19.084;2022-12-08T18:14:19;47.80;;;14.97;;
68108;SDS011;54893;49.864;19.084;2022-12-08T18:19:20;44.63;;;14.82;;
68108;SDS011;54893;49.864;19.084;2022-12-08T18:24:21;51.27;;;16.87;;
68108;SDS011;54893;49.864;19.084;2022-12-08T18:29:22;40.20;;;14.87;;
68108;SDS011;54893;49.864;19.084;2022-12-08T18:34:23;38.88;;;14.23;;
68108;SDS011;54893;49.864;19.084;2022-12-08T18:39:24;43.73;;;15.07;;
68108;SDS011;54893;49.864;19.084;2022-12-08T18:44:27;39.58;;;13.40;;
68108;SDS011;54893;49.864;19.084;2022-12-08T18:49:27;38.75;;;12.98;;
68108;SDS011;54893;49.864;19.084;2022-12-08T18:54:28;37.60;;;12.82;;
68108;SDS011;54893;49.864;19.084;2022-12-08T18:59:28;33.47;;;11.60;;
68108;SDS011;54893;49.864;19.084;2022-12-08T19:04:28;32.13;;;12.37;;
68108;SDS011;54893;49.864;19.084;2022-12-08T19:09:29;36.93;;;11.70;;
68108;SDS011;54893;49.864;19.084;2022-12-08T19:14:29;33.27;;;12.43;;
68108;SDS011;54893;49.864;19.084;2022-12-08T19:19:32;28.02;;;10.25;;
68108;SDS011;54893;49.864;19.084;2022-12-08T19:24:33;26.27;;;9.65;;
68108;SDS011;54893;49.864;19.084;2022-12-08T19:29:35;26.98;;;9.20;;
68108;SDS011;54893;49.864;19.084;2022-12-08T19:34:35;25.97;;;9.43;;
68108;SDS011;54893;49.864;19.084;2022-12-08T19:39:36;26.27;;;8.63;;
68108;SDS011;54893;49.864;19.084;2022-12-08T19:44:57;38.50;;;12.00;;
68108;SDS011;54893;49.864;19.084;2022-12-08T19:49:59;44.55;;;12.32;;
68108;SDS011;54893;49.864;19.084;2022-12-08T19:55:32;24.15;;;8.60;;
68108;SDS011;54893;49.864;19.084;2022-12-08T20:00:33;24.67;;;8.73;;
68108;SDS011;54893;49.864;19.084;2022-12-08T20:05:35;24.47;;;8.57;;
68108;SDS011;54893;49.864;19.084;2022-12-08T20:10:37;27.35;;;10.13;;
68108;SDS011;54893;49.864;19.084;2022-12-08T20:15:39;26.23;;;10.55;;
68108;SDS011;54893;49.864;19.084;2022-12-08T20:20:40;29.60;;;8.98;;
68108;SDS011;54893;49.864;19.084;2022-12-08T20:25:42;28.20;;;10.05;;
68108;SDS011;54893;49.864;19.084;2022-12-08T20:30:44;34.05;;;9.73;;
68108;SDS011;54893;49.864;19.084;2022-12-08T20:35:45;25.90;;;8.05;;
68108;SDS011;54893;49.864;19.084;2022-12-08T20:40:46;24.13;;;7.87;;
68108;SDS011;54893;49.864;19.084;2022-12-08T20:45:47;19.93;;;7.70;;
68108;SDS011;54893;49.864;19.084;2022-12-08T20:50:48;22.85;;;8.68;;
68108;SDS011;54893;49.864;19.084;2022-12-08T20:55:50;20.63;;;7.97;;
68108;SDS011;54893;49.864;19.084;2022-12-08T21:00:51;28.37;;;10.90;;
68108;SDS011;54893;49.864;19.084;2022-12-08T21:05:51;26.03;;;8.90;;
68108;SDS011;54893;49.864;19.084;2022-12-08T21:10:53;20.07;;;7.20;;
68108;SDS011;54893;49.864;19.084;2022-12-08T21:15:54;13.02;;;5.20;;
68108;SDS011;54893;49.864;19.084;2022-12-08T21:21:06;14.93;;;6.10;;
68108;SDS011;54893;49.864;19.084;2022-12-08T21:26:09;17.35;;;6.45;;
68108;SDS011;54893;49.864;19.084;2022-12-08T21:31:12;15.00;;;5.50;;
68108;SDS011;54893;49.864;19.084;2022-12-08T21:36:15;15.95;;;5.70;;
68108;SDS011;54893;49.864;19.084;2022-12-08T21:41:18;15.80;;;4.90;;
68108;SDS011;54893;49.864;19.084;2022-12-08T21:46:40;13.20;;;5.38;;
68108;SDS011;54893;49.864;19.084;2022-12-08T21:51:41;14.85;;;5.22;;
68108;SDS011;54893;49.864;19.084;2022-12-08T21:56:44;14.00;;;5.43;;
68108;SDS011;54893;49.864;19.084;2022-12-08T22:01:46;11.17;;;4.50;;
68108;SDS011;54893;49.864;19.084;2022-12-08T22:06:46;14.70;;;5.33;;
68108;SDS011;54893;49.864;19.084;2022-12-08T22:11:47;16.02;;;5.00;;
68108;SDS011;54893;49.864;19.084;2022-12-08T22:16:48;17.33;;;5.23;;
68108;SDS011;54893;49.864;19.084;2022-12-08T22:21:48;18.17;;;6.00;;
68108;SDS011;54893;49.864;19.084;2022-12-08T22:26:49;14.77;;;5.17;;
68108;SDS011;54893;49.864;19.084;2022-12-08T22:31:49;24.27;;;7.20;;
68108;SDS011;54893;49.864;19.084;2022-12-08T22:36:50;26.57;;;7.40;;
68108;SDS011;54893;49.864;19.084;2022-12-08T22:41:50;23.63;;;7.67;;
68108;SDS011;54893;49.864;19.084;2022-12-08T22:46:51;20.45;;;6.38;;
68108;SDS011;54893;49.864;19.084;2022-12-08T22:51:51;27.33;;;7.97;;
68108;SDS011;54893;49.864;19.084;2022-12-08T22:56:52;27.07;;;8.13;;
68108;SDS011;54893;49.864;19.084;2022-12-08T23:01:52;20.63;;;8.07;;
68108;SDS011;54893;49.864;19.084;2022-12-08T23:06:53;24.47;;;8.43;;
68108;SDS011;54893;49.864;19.084;2022-12-08T23:11:53;19.03;;;6.63;;
68108;SDS011;54893;49.864;19.084;2022-12-08T23:16:53;35.97;;;12.07;;
68108;SDS011;54893;49.864;19.084;2022-12-08T23:21:54;40.67;;;14.47;;
68108;SDS011;54893;49.864;19.084;2022-12-08T23:26:54;24.35;;;8.45;;
68108;SDS011;54893;49.864;19.084;2022-12-08T23:31:54;28.70;;;11.30;;
68108;SDS011;54893;49.864;19.084;2022-12-08T23:36:55;20.73;;;8.25;;
68108;SDS011;54893;49.864;19.084;2022-12-08T23:41:55;15.32;;;6.38;;
68108;SDS011;54893;49.864;19.084;2022-12-08T23:46:55;13.70;;;5.65;;
68108;SDS011;54893;49.864;19.084;2022-12-08T23:51:56;48.20;;;16.53;;
68108;SDS011;54893;49.864;19.084;2022-12-08T23:56:56;58.30;;;21.90;;
